createdAt,value
2018-08-11T00:02:10.173Z,21.97
2018-08-11T00:04:39.148Z,21.88
2018-08-11T00:07:07.984Z,21.92
2018-08-11T00:09:36.973Z,21.87
2018-08-11T00:12:06.456Z,21.82
2018-08-11T00:14:35.310Z,21.77
2018-08-11T00:17:04.137Z,21.77
2018-08-11T00:19:32.987Z,21.70
2018-08-11T00:22:01.904Z,21.73
2018-08-11T00:24:30.852Z,21.79
2018-08-11T00:27:00.003Z,21.77
2018-08-11T00:29:28.912Z,21.79
2018-08-11T00:31:57.772Z,21.72
2018-08-11T00:34:26.860Z,21.82
2018-08-11T00:36:55.775Z,21.82
2018-08-11T00:39:24.761Z,21.83
2018-08-11T00:41:53.612Z,21.82
2018-08-11T00:44:22.516Z,21.77
2018-08-11T00:46:51.357Z,21.77
2018-08-11T00:49:20.332Z,21.72
2018-08-11T00:51:49.247Z,21.61
2018-08-11T00:54:18.213Z,21.53
2018-08-11T00:56:47.666Z,21.54
2018-08-11T00:59:16.536Z,21.55
2018-08-11T01:01:45.372Z,21.52
2018-08-11T01:04:14.775Z,21.44
2018-08-11T01:06:43.739Z,21.43
2018-08-11T01:09:12.765Z,21.34
2018-08-11T01:11:42.029Z,21.40
2018-08-11T01:14:10.956Z,21.34
2018-08-11T01:16:39.925Z,21.27
2018-08-11T01:19:09.147Z,21.21
2018-08-11T01:21:37.953Z,21.21
2018-08-11T01:24:06.800Z,21.29
2018-08-11T01:26:36.109Z,21.30
2018-08-11T01:29:05.359Z,21.44
2018-08-11T01:31:34.373Z,21.54
2018-08-11T01:34:03.467Z,21.52
2018-08-11T01:36:32.388Z,21.55
2018-08-11T01:39:01.206Z,21.55
2018-08-11T01:41:30.521Z,21.43
2018-08-11T01:43:59.438Z,21.34
2018-08-11T01:46:28.312Z,21.39
2018-08-11T01:48:57.263Z,21.36
2018-08-11T01:51:26.133Z,21.35
2018-08-11T01:53:54.973Z,21.32
2018-08-11T01:56:24.227Z,21.34
2018-08-11T01:58:53.129Z,21.30
2018-08-11T02:01:22.002Z,21.30
2018-08-11T02:03:51.253Z,21.26
2018-08-11T02:06:20.269Z,21.20
2018-08-11T02:08:49.036Z,21.15
2018-08-11T02:11:18.385Z,21.11
2018-08-11T02:13:47.280Z,21.06
2018-08-11T02:16:16.182Z,21.07
2018-08-11T02:18:45.473Z,21.07
2018-08-11T02:21:14.412Z,21.01
2018-08-11T02:23:43.265Z,21.02
2018-08-11T02:26:12.163Z,20.99
2018-08-11T02:28:41.102Z,20.94
2018-08-11T02:31:09.890Z,20.88
2018-08-11T02:33:38.762Z,20.85
2018-08-11T02:36:08.122Z,20.76
2018-08-11T02:38:37.030Z,20.71
2018-08-11T02:41:06.132Z,20.70
2018-08-11T02:43:34.862Z,20.69
2018-08-11T02:46:03.730Z,20.70
2018-08-11T02:48:32.649Z,20.71
2018-08-11T02:51:01.502Z,20.71
2018-08-11T02:53:30.320Z,20.70
2018-08-11T02:55:59.193Z,20.68
2018-08-11T02:58:28.007Z,20.62
2018-08-11T03:00:56.967Z,20.70
2018-08-11T03:03:26.106Z,20.64
2018-08-11T03:05:54.926Z,20.62
2018-08-11T03:08:23.855Z,20.61
2018-08-11T03:10:53.373Z,20.58
2018-08-11T03:13:25.171Z,20.56
2018-08-11T03:15:54.439Z,20.54
2018-08-11T03:18:23.427Z,20.53
2018-08-11T03:20:52.317Z,20.43
2018-08-11T03:23:21.212Z,20.40
2018-08-11T03:25:50.089Z,20.37
2018-08-11T03:28:18.903Z,20.34
2018-08-11T03:30:47.951Z,20.32
2018-08-11T03:33:16.738Z,20.31
2018-08-11T03:35:45.582Z,20.35
2018-08-11T03:38:14.451Z,20.40
2018-08-11T03:40:43.200Z,20.41
2018-08-11T03:43:12.072Z,20.45
2018-08-11T03:45:41.274Z,20.46
2018-08-11T03:48:10.119Z,20.49
2018-08-11T03:50:39.019Z,20.48
2018-08-11T03:53:08.223Z,20.47
2018-08-11T03:55:37.147Z,20.47
2018-08-11T03:58:06.061Z,20.47
2018-08-11T04:00:35.386Z,20.53
2018-08-11T04:03:04.265Z,20.62
2018-08-11T04:05:33.086Z,20.72
2018-08-11T04:08:01.937Z,20.85
2018-08-11T04:10:31.062Z,21.03
2018-08-11T04:13:00.009Z,21.27
2018-08-11T04:15:29.352Z,21.53
2018-08-11T04:17:58.237Z,21.80
2018-08-11T04:20:27.259Z,21.94
2018-08-11T04:22:56.323Z,21.95
2018-08-11T04:27:52.752Z,21.88
2018-08-11T04:30:22.110Z,21.81
2018-08-11T04:32:50.977Z,21.77
2018-08-11T04:35:19.808Z,21.77
2018-08-11T04:37:48.955Z,21.76
2018-08-11T04:40:17.865Z,21.79
2018-08-11T04:42:46.670Z,21.92
2018-08-11T04:45:15.821Z,22.08
2018-08-11T04:47:44.781Z,22.20
2018-08-11T04:50:13.700Z,22.26
2018-08-11T04:52:42.636Z,22.29
2018-08-11T04:55:11.471Z,22.32
2018-08-11T04:57:40.464Z,22.38
2018-08-11T05:00:10.021Z,22.27
2018-08-11T05:02:38.899Z,22.30
2018-08-11T05:05:08.318Z,22.25
2018-08-11T05:07:37.782Z,22.37
2018-08-11T05:10:07.409Z,22.40
2018-08-11T05:12:36.133Z,22.42
2018-08-11T05:15:05.830Z,22.38
2018-08-11T05:17:34.697Z,22.38
2018-08-11T05:20:03.637Z,22.34
2018-08-11T05:22:32.842Z,22.40
2018-08-11T05:25:01.798Z,22.48
2018-08-11T05:27:30.719Z,22.59
2018-08-11T05:29:59.768Z,22.71
2018-08-11T05:32:28.617Z,22.91
2018-08-11T05:34:58.471Z,23.04
2018-08-11T05:37:27.796Z,23.08
2018-08-11T05:39:56.541Z,23.42
2018-08-11T05:42:25.309Z,23.83
2018-08-11T05:44:54.656Z,24.02
2018-08-11T05:47:23.422Z,23.77
2018-08-11T05:49:52.502Z,24.29
2018-08-11T05:52:21.676Z,24.36
2018-08-11T05:54:50.623Z,24.86
2018-08-11T05:57:19.440Z,25.30
2018-08-11T05:59:48.314Z,25.30
2018-08-11T06:02:17.152Z,25.16
2018-08-11T06:04:46.150Z,24.94
2018-08-11T06:07:15.467Z,24.93
2018-08-11T06:09:44.253Z,24.76
2018-08-11T06:12:13.245Z,24.44
2018-08-11T06:14:42.574Z,24.48
2018-08-11T06:17:11.309Z,24.50
2018-08-11T06:19:40.108Z,24.54
2018-08-11T06:22:08.969Z,24.53
2018-08-11T06:24:37.881Z,24.65
2018-08-11T06:27:06.913Z,24.55
2018-08-11T06:29:35.889Z,24.55
2018-08-11T06:32:04.895Z,24.60
2018-08-11T06:34:33.719Z,24.75
2018-08-11T06:37:02.639Z,24.90
2018-08-11T06:39:31.353Z,25.07
2018-08-11T06:42:00.256Z,25.19
2018-08-11T06:44:29.125Z,25.21
2018-08-11T06:46:58.039Z,24.95
2018-08-11T06:49:26.919Z,24.55
2018-08-11T06:51:56.113Z,24.57
2018-08-11T06:54:25.083Z,24.30
2018-08-11T06:56:54.005Z,24.42
2018-08-11T06:59:23.353Z,24.54
2018-08-11T07:01:52.235Z,24.44
2018-08-11T07:04:21.075Z,24.62
2018-08-11T07:06:50.023Z,24.80
2018-08-11T07:09:19.025Z,24.91
2018-08-11T07:11:47.889Z,25.16
2018-08-11T07:14:16.673Z,25.23
2018-08-11T07:16:45.617Z,25.24
2018-08-11T07:19:14.611Z,25.26
2018-08-11T07:21:43.535Z,25.47
2018-08-11T07:24:12.382Z,25.71
2018-08-11T07:26:41.229Z,25.92
2018-08-11T07:29:10.076Z,25.85
2018-08-11T07:31:39.006Z,25.37
2018-08-11T07:34:07.900Z,25.62
2018-08-11T07:36:37.341Z,25.79
2018-08-11T07:39:08.168Z,25.47
2018-08-11T07:41:36.992Z,25.64
2018-08-11T07:44:05.868Z,25.87
2018-08-11T07:46:34.820Z,25.65
2018-08-11T07:49:03.675Z,25.65
2018-08-11T07:51:32.612Z,25.49
2018-08-11T07:54:01.457Z,25.31
2018-08-11T07:56:30.289Z,25.55
2018-08-11T07:58:59.223Z,25.74
2018-08-11T08:01:28.199Z,25.85
2018-08-11T08:03:56.989Z,25.75
2018-08-11T08:06:25.840Z,26.02
2018-08-11T08:08:54.743Z,26.50
2018-08-11T08:11:23.563Z,26.84
2018-08-11T08:13:52.879Z,27.05
2018-08-11T08:16:21.860Z,27.28
2018-08-11T08:18:50.740Z,27.56
2018-08-11T08:21:19.994Z,27.85
2018-08-11T08:23:48.866Z,27.89
2018-08-11T08:26:17.878Z,27.38
2018-08-11T08:28:46.594Z,27.10
2018-08-11T08:31:15.509Z,26.89
2018-08-11T08:33:44.303Z,27.24
2018-08-11T08:36:13.685Z,27.30
2018-08-11T08:38:43.475Z,27.42
2018-08-11T08:41:12.302Z,27.45
2018-08-11T08:43:41.783Z,27.68
2018-08-11T08:46:10.609Z,27.81
2018-08-11T08:48:39.570Z,27.20
2018-08-11T08:51:09.123Z,27.65
2018-08-11T08:53:38.091Z,27.35
2018-08-11T08:56:06.990Z,27.59
2018-08-11T08:58:35.937Z,27.70
2018-08-11T09:01:04.851Z,27.59
2018-08-11T09:03:33.665Z,27.70
2018-08-11T09:06:03.027Z,27.63
2018-08-11T09:08:31.932Z,27.93
2018-08-11T09:11:00.812Z,27.54
2018-08-11T09:13:30.085Z,27.71
2018-08-11T09:15:58.992Z,27.96
2018-08-11T09:18:27.983Z,28.00
2018-08-11T09:20:57.355Z,27.46
2018-08-11T09:23:26.217Z,27.63
2018-08-11T09:25:55.101Z,27.83
2018-08-11T09:28:24.432Z,28.09
2018-08-11T09:30:53.252Z,28.16
2018-08-11T09:33:22.075Z,27.57
2018-08-11T09:35:51.265Z,27.47
2018-08-11T09:38:20.238Z,27.48
2018-08-11T09:40:49.427Z,27.36
2018-08-11T09:43:18.374Z,27.19
2018-08-11T09:45:47.311Z,27.60
2018-08-11T09:48:16.172Z,27.84
2018-08-11T09:50:45.129Z,27.66
2018-08-11T09:53:13.996Z,27.89
2018-08-11T09:55:42.763Z,28.20
2018-08-11T09:58:12.505Z,28.35
2018-08-11T10:00:46.409Z,28.20
2018-08-11T10:03:15.817Z,28.06
2018-08-11T10:05:44.774Z,27.87
2018-08-11T10:08:13.670Z,27.98
2018-08-11T10:10:42.937Z,28.06
2018-08-11T10:13:11.859Z,28.24
2018-08-11T10:15:40.856Z,28.13
2018-08-11T10:18:10.012Z,27.92
2018-08-11T10:20:38.855Z,28.08
2018-08-11T10:23:07.672Z,28.17
2018-08-11T10:25:36.532Z,28.42
2018-08-11T10:28:05.449Z,28.33
2018-08-11T10:30:34.319Z,28.21
2018-08-11T10:33:03.082Z,28.30
2018-08-11T10:35:31.808Z,28.50
2018-08-11T10:38:00.717Z,28.71
2018-08-11T10:40:29.684Z,28.93
2018-08-11T10:42:58.604Z,29.02
2018-08-11T10:45:27.424Z,29.12
2018-08-11T10:47:56.221Z,29.30
2018-08-11T10:50:25.179Z,29.34
2018-08-11T10:52:54.000Z,29.42
2018-08-11T10:55:23.289Z,29.38
2018-08-11T10:57:52.152Z,29.45
2018-08-11T11:00:20.965Z,28.84
2018-08-11T11:02:49.913Z,28.51
2018-08-11T11:05:18.741Z,28.62
2018-08-11T11:07:47.525Z,28.80
2018-08-11T11:10:16.924Z,28.94
2018-08-11T11:12:45.825Z,29.15
2018-08-11T11:15:14.735Z,29.30
2018-08-11T11:17:43.892Z,29.45
2018-08-11T11:20:13.141Z,29.62
2018-08-11T11:22:42.505Z,29.60
2018-08-11T11:25:11.990Z,29.45
2018-08-11T11:27:41.141Z,29.54
2018-08-11T11:30:10.045Z,29.12
2018-08-11T11:32:38.822Z,28.75
2018-08-11T11:35:07.968Z,29.13
2018-08-11T11:37:36.973Z,29.29
2018-08-11T11:40:07.075Z,29.53
2018-08-11T11:42:35.939Z,29.47
2018-08-11T11:45:04.955Z,29.16
2018-08-11T11:47:34.240Z,29.05
2018-08-11T11:50:03.255Z,29.20
2018-08-11T11:52:32.116Z,29.21
2018-08-11T11:55:01.094Z,29.41
2018-08-11T11:57:29.940Z,29.54
2018-08-11T11:59:58.841Z,29.81
2018-08-11T12:02:28.085Z,29.95
2018-08-11T12:04:56.912Z,29.89
2018-08-11T12:07:25.763Z,29.96
2018-08-11T12:09:55.063Z,30.11
2018-08-11T12:12:23.931Z,30.20
2018-08-11T12:14:52.796Z,30.28
2018-08-11T12:17:21.943Z,30.44
2018-08-11T12:19:50.832Z,30.56
2018-08-11T12:22:19.565Z,30.62
2018-08-11T12:24:48.488Z,30.65
2018-08-11T12:27:17.293Z,30.61
2018-08-11T12:29:46.290Z,30.48
2018-08-11T12:32:15.441Z,30.53
2018-08-11T12:34:44.288Z,30.61
2018-08-11T12:37:13.197Z,30.36
2018-08-11T12:39:42.536Z,29.91
2018-08-11T12:42:11.443Z,29.99
2018-08-11T12:44:40.311Z,30.21
2018-08-11T12:47:09.615Z,30.50
2018-08-11T12:49:38.496Z,30.72
2018-08-11T12:52:07.345Z,30.87
2018-08-11T12:54:36.212Z,31.00
2018-08-11T12:57:05.252Z,30.81
2018-08-11T12:59:34.064Z,30.52
2018-08-11T13:02:03.091Z,30.55
2018-08-11T13:04:31.966Z,30.45
2018-08-11T13:07:00.782Z,30.45
2018-08-11T13:09:30.117Z,30.69
2018-08-11T13:11:58.978Z,30.74
2018-08-11T13:14:27.795Z,30.91
2018-08-11T13:16:57.908Z,31.05
2018-08-11T13:19:26.816Z,30.86
2018-08-11T13:21:55.854Z,30.93
2018-08-11T13:24:24.984Z,30.52
2018-08-11T13:26:53.816Z,30.45
2018-08-11T13:29:22.709Z,30.64
2018-08-11T13:31:51.650Z,30.87
2018-08-11T13:34:20.509Z,31.00
2018-08-11T13:36:49.361Z,31.06
2018-08-11T13:39:18.176Z,31.17
2018-08-11T13:41:49.023Z,31.19
2018-08-11T13:44:18.995Z,31.28
2018-08-11T13:46:47.876Z,31.36
2018-08-11T13:49:16.690Z,31.23
2018-08-11T13:51:45.737Z,31.26
2018-08-11T13:54:14.486Z,31.30
2018-08-11T13:56:43.328Z,31.41
2018-08-11T13:59:12.234Z,31.00
2018-08-11T14:01:40.965Z,30.77
2018-08-11T14:04:09.898Z,30.92
2018-08-11T14:06:39.153Z,30.84
2018-08-11T14:09:09.104Z,30.91
2018-08-11T14:11:37.997Z,30.42
2018-08-11T14:14:07.247Z,30.50
2018-08-11T14:16:36.125Z,30.62
2018-08-11T14:19:05.008Z,30.78
2018-08-11T14:21:34.316Z,30.87
2018-08-11T14:24:03.263Z,30.96
2018-08-11T14:26:32.163Z,30.99
2018-08-11T14:29:01.158Z,30.84
2018-08-11T14:31:29.929Z,30.83
2018-08-11T14:33:58.750Z,30.90
2018-08-11T14:36:27.618Z,30.95
2018-08-11T14:38:56.476Z,31.01
2018-08-11T14:41:25.383Z,31.02
2018-08-11T14:43:54.247Z,31.07
2018-08-11T14:46:23.197Z,30.95
2018-08-11T14:48:52.054Z,30.77
2018-08-11T14:51:20.918Z,30.89
2018-08-11T14:53:49.779Z,30.95
2018-08-11T14:56:18.762Z,30.98
2018-08-11T14:58:47.713Z,31.01
2018-08-11T15:01:16.569Z,30.82
2018-08-11T15:03:45.502Z,30.83
2018-08-11T15:06:14.826Z,30.85
2018-08-11T15:08:43.731Z,30.88
2018-08-11T15:11:12.549Z,30.84
2018-08-11T15:13:41.661Z,30.82
2018-08-11T15:16:10.518Z,30.84
2018-08-11T15:18:39.644Z,30.86
2018-08-11T15:21:09.062Z,30.87
2018-08-11T15:23:37.875Z,30.82
2018-08-11T15:26:06.897Z,30.84
2018-08-11T15:28:35.746Z,30.61
2018-08-11T15:31:04.564Z,30.61
2018-08-11T15:33:33.508Z,30.56
2018-08-11T15:36:03.003Z,30.53
2018-08-11T15:38:31.836Z,30.54
2018-08-11T15:41:00.640Z,30.56
2018-08-11T15:43:29.876Z,30.59
2018-08-11T15:45:58.778Z,30.56
2018-08-11T15:48:27.549Z,30.51
2018-08-11T15:50:56.491Z,30.48
2018-08-11T15:53:25.274Z,30.48
2018-08-11T15:55:54.032Z,30.49
2018-08-11T15:58:23.410Z,30.49
2018-08-11T16:00:52.333Z,30.48
2018-08-11T16:03:21.310Z,30.42
2018-08-11T16:05:50.503Z,30.39
2018-08-11T16:08:19.302Z,30.36
2018-08-11T16:10:48.123Z,30.36
2018-08-11T16:13:17.344Z,30.30
2018-08-11T16:15:46.192Z,30.26
2018-08-11T16:18:15.087Z,30.18
2018-08-11T16:20:44.435Z,30.16
2018-08-11T16:23:13.225Z,30.08
2018-08-11T16:25:42.051Z,29.99
2018-08-11T16:28:11.304Z,30.04
2018-08-11T16:30:40.222Z,30.06
2018-08-11T16:33:09.059Z,29.98
2018-08-11T16:35:38.869Z,29.93
2018-08-11T16:38:08.246Z,29.82
2018-08-11T16:40:36.985Z,29.79
2018-08-11T16:43:06.275Z,29.73
2018-08-11T16:45:35.243Z,29.72
2018-08-11T16:48:04.159Z,29.71
2018-08-11T16:50:32.990Z,29.63
2018-08-11T16:53:01.875Z,29.61
2018-08-11T16:55:30.866Z,29.52
2018-08-11T16:58:00.192Z,29.39
2018-08-11T17:00:28.977Z,29.35
2018-08-11T17:02:57.810Z,29.33
2018-08-11T17:05:26.678Z,29.25
2018-08-11T17:07:55.476Z,29.25
2018-08-11T17:10:24.369Z,29.14
2018-08-11T17:12:53.228Z,29.07
2018-08-11T17:15:21.969Z,28.97
2018-08-11T17:17:50.831Z,28.87
2018-08-11T17:20:19.823Z,28.73
2018-08-11T17:22:48.613Z,28.61
2018-08-11T17:25:17.516Z,28.51
2018-08-11T17:27:46.336Z,28.39
2018-08-11T17:30:15.264Z,28.28
2018-08-11T17:32:44.073Z,28.19
2018-08-11T17:35:13.348Z,28.11
2018-08-11T17:37:42.154Z,27.96
2018-08-11T17:40:11.025Z,27.85
2018-08-11T17:42:39.917Z,27.76
2018-08-11T17:45:08.775Z,27.66
2018-08-11T17:47:37.566Z,27.56
2018-08-11T17:50:06.824Z,27.48
2018-08-11T17:52:35.676Z,27.26
2018-08-11T17:55:04.496Z,27.24
2018-08-11T17:57:33.741Z,27.17
2018-08-11T18:00:02.603Z,27.07
2018-08-11T18:02:31.596Z,26.97
2018-08-11T18:05:01.053Z,26.88
2018-08-11T18:07:29.982Z,26.81
2018-08-11T18:09:58.945Z,26.74
2018-08-11T18:12:28.283Z,26.67
2018-08-11T18:14:57.159Z,26.61
2018-08-11T18:17:26.317Z,26.57
2018-08-11T18:19:55.590Z,26.51
2018-08-11T18:22:24.440Z,26.53
2018-08-11T18:24:53.251Z,26.50
2018-08-11T18:27:22.572Z,26.40
2018-08-11T18:29:51.350Z,26.30
2018-08-11T18:32:20.304Z,26.24
2018-08-11T18:34:49.524Z,25.71
2018-08-11T18:37:18.299Z,25.81
2018-08-11T18:39:47.155Z,25.78
2018-08-11T18:42:17.327Z,25.70
2018-08-11T18:44:46.074Z,25.63
2018-08-11T18:47:14.976Z,25.60
2018-08-11T18:49:43.928Z,25.53
2018-08-11T18:52:12.886Z,25.50
2018-08-11T18:54:41.640Z,25.48
2018-08-11T18:57:10.969Z,25.41
2018-08-11T18:59:39.857Z,25.35
2018-08-11T19:02:08.823Z,25.29
2018-08-11T19:04:37.721Z,25.19
2018-08-11T19:07:07.043Z,25.03
2018-08-11T19:09:35.994Z,25.10
2018-08-11T19:12:06.061Z,25.09
2018-08-11T19:14:34.973Z,24.88
2018-08-11T19:17:03.847Z,24.70
2018-08-11T19:19:32.834Z,24.72
2018-08-11T19:22:01.686Z,24.56
2018-08-11T19:24:30.615Z,24.47
2018-08-11T19:26:59.500Z,24.45
2018-08-11T19:29:28.489Z,24.52
2018-08-11T19:31:57.328Z,24.55
2018-08-11T19:34:26.288Z,24.48
2018-08-11T19:36:55.309Z,24.54
2018-08-11T19:39:24.211Z,24.55
2018-08-11T19:41:53.549Z,24.42
2018-08-11T19:44:22.405Z,24.42
2018-08-11T19:46:51.297Z,24.40
2018-08-11T19:49:21.266Z,24.42
2018-08-11T19:51:50.048Z,24.36
2018-08-11T19:54:18.879Z,24.31
2018-08-11T19:56:48.141Z,24.27
2018-08-11T19:59:17.073Z,24.20
2018-08-11T20:01:46.053Z,24.16
2018-08-11T20:04:16.009Z,24.16
2018-08-11T20:06:45.880Z,24.13
2018-08-11T20:09:14.708Z,24.18
2018-08-11T20:11:43.939Z,24.21
2018-08-11T20:14:12.872Z,24.17
2018-08-11T20:16:41.777Z,24.17
2018-08-11T20:19:10.847Z,24.30
2018-08-11T20:21:39.666Z,24.37
2018-08-11T20:24:08.496Z,24.31
2018-08-11T20:26:37.890Z,24.23
2018-08-11T20:29:06.773Z,24.21
2018-08-11T20:31:35.638Z,24.26
2018-08-11T20:34:04.651Z,24.19
2018-08-11T20:36:33.680Z,24.17
2018-08-11T20:39:02.680Z,24.29
2018-08-11T20:41:31.904Z,24.25
2018-08-11T20:44:00.841Z,24.24
2018-08-11T20:46:29.564Z,24.08
2018-08-11T20:48:58.862Z,24.05
2018-08-11T20:51:28.063Z,23.87
2018-08-11T20:53:57.004Z,23.72
2018-08-11T20:56:26.089Z,23.70
2018-08-11T20:58:54.909Z,23.66
2018-08-11T21:01:23.718Z,23.57
2018-08-11T21:03:53.006Z,23.58
2018-08-11T21:06:21.890Z,23.63
2018-08-11T21:08:50.798Z,23.57
2018-08-11T21:11:19.844Z,23.62
2018-08-11T21:13:48.773Z,23.57
2018-08-11T21:16:17.789Z,23.68
2018-08-11T21:18:46.765Z,23.62
2018-08-11T21:21:15.729Z,23.67
2018-08-11T21:23:44.724Z,23.65
2018-08-11T21:26:14.057Z,23.76
2018-08-11T21:28:42.931Z,23.71
2018-08-11T21:31:11.784Z,23.57
2018-08-11T21:33:40.636Z,23.41
2018-08-11T21:36:09.501Z,23.49
2018-08-11T21:38:38.369Z,23.52
2018-08-11T21:41:07.605Z,23.41
2018-08-11T21:43:36.554Z,23.25
2018-08-11T21:46:05.946Z,23.17
2018-08-11T21:48:34.877Z,23.13
2018-08-11T21:51:03.645Z,23.00
2018-08-11T21:53:32.496Z,22.98
2018-08-11T21:56:01.948Z,22.94
2018-08-11T21:58:30.845Z,22.90
2018-08-11T22:01:07.440Z,22.93
2018-08-11T22:03:36.281Z,22.87
2018-08-11T22:06:05.139Z,22.63
2018-08-11T22:08:34.396Z,22.62
2018-08-11T22:11:03.288Z,22.61
2018-08-11T22:13:32.230Z,22.58
2018-08-11T22:16:01.658Z,22.53
2018-08-11T22:18:30.564Z,22.45
2018-08-11T22:20:59.487Z,22.42
2018-08-11T22:23:28.465Z,22.44
2018-08-11T22:25:57.307Z,22.34
2018-08-11T22:28:26.254Z,22.37
2018-08-11T22:30:55.613Z,22.34
2018-08-11T22:33:24.581Z,22.36
2018-08-11T22:35:53.641Z,22.21
2018-08-11T22:38:23.277Z,22.09
2018-08-11T22:40:52.145Z,22.02
2018-08-11T22:43:21.146Z,22.03
2018-08-11T22:45:50.366Z,22.04
2018-08-11T22:48:19.279Z,22.01
2018-08-11T22:50:48.304Z,21.76
2018-08-11T22:53:17.130Z,21.78
2018-08-11T22:55:45.928Z,21.73
2018-08-11T22:58:14.845Z,21.72
2018-08-11T23:00:44.107Z,21.77
2018-08-11T23:03:13.116Z,21.70
2018-08-11T23:05:42.043Z,21.71
2018-08-11T23:08:10.916Z,21.69
2018-08-11T23:10:39.833Z,21.66
2018-08-11T23:13:08.628Z,21.45
2018-08-11T23:15:37.961Z,21.33
2018-08-11T23:18:07.029Z,21.41
2018-08-11T23:20:35.919Z,21.44
2018-08-11T23:23:05.133Z,21.47
2018-08-11T23:25:34.051Z,21.49
2018-08-11T23:28:03.059Z,21.49
2018-08-11T23:30:32.387Z,21.40
2018-08-11T23:33:01.340Z,21.35
2018-08-11T23:35:30.208Z,21.35
2018-08-11T23:37:59.550Z,21.32
2018-08-11T23:40:28.359Z,21.30
2018-08-11T23:42:57.338Z,21.22
2018-08-11T23:45:26.302Z,21.19
2018-08-11T23:47:55.239Z,21.05
2018-08-11T23:50:24.152Z,21.01
2018-08-11T23:52:53.093Z,20.96
2018-08-11T23:55:22.067Z,20.90
2018-08-11T23:57:51.002Z,20.92
